createdAt,value
2017-11-24T00:00:52.180Z,79.19
2017-11-24T00:01:52.184Z,79.28
2017-11-24T00:02:52.174Z,78.81
2017-11-24T00:03:52.196Z,78.72
2017-11-24T00:04:52.171Z,78.91
2017-11-24T00:05:52.168Z,79.38
2017-11-24T00:06:52.164Z,79.19
2017-11-24T00:07:52.162Z,78.91
2017-11-24T00:08:52.163Z,79.19
2017-11-24T00:09:52.158Z,79.19
2017-11-24T00:10:52.161Z,79.28
2017-11-24T00:11:52.153Z,79.38
2017-11-24T00:12:52.156Z,79.67
2017-11-24T00:13:52.149Z,79.57
2017-11-24T00:14:52.145Z,79.67
2017-11-24T00:15:52.143Z,79.28
2017-11-24T00:16:52.144Z,79.48
2017-11-24T00:17:52.139Z,79.77
2017-11-24T00:18:52.137Z,80.15
2017-11-24T00:19:52.135Z,80.05
2017-11-24T00:20:52.132Z,80.05
2017-11-24T00:21:52.129Z,80.15
2017-11-24T00:22:52.126Z,80.05
2017-11-24T00:23:52.132Z,79.86
2017-11-24T00:24:52.121Z,79.86
2017-11-24T00:25:52.118Z,80.33
2017-11-24T00:26:52.118Z,80.43
2017-11-24T00:27:52.116Z,81.10
2017-11-24T00:28:52.114Z,81.10
2017-11-24T00:29:52.116Z,81.01
2017-11-24T00:30:52.106Z,80.91
2017-11-24T00:31:52.290Z,80.39
2017-11-24T00:32:52.102Z,80.91
2017-11-24T00:33:52.100Z,80.58
2017-11-24T00:34:52.109Z,80.68
2017-11-24T00:35:52.097Z,80.43
2017-11-24T00:36:52.106Z,80.62
2017-11-24T00:37:52.091Z,80.68
2017-11-24T00:38:52.165Z,80.58
2017-11-24T00:39:52.085Z,80.39
2017-11-24T00:40:52.092Z,80.20
2017-11-24T00:41:52.087Z,80.96
2017-11-24T00:42:52.077Z,80.58
2017-11-24T00:43:52.080Z,81.06
2017-11-24T00:44:52.072Z,81.15
2017-11-24T00:45:52.069Z,80.87
2017-11-24T00:46:52.068Z,80.77
2017-11-24T00:47:52.064Z,81.35
2017-11-24T00:48:52.063Z,81.06
2017-11-24T00:49:52.096Z,81.92
2017-11-24T00:50:52.058Z,81.73
2017-11-24T00:51:52.055Z,81.82
2017-11-24T00:52:52.054Z,81.35
2017-11-24T00:53:52.054Z,81.73
2017-11-24T00:54:52.045Z,81.35
2017-11-24T00:55:52.054Z,81.44
2017-11-24T00:56:52.042Z,81.63
2017-11-24T00:57:52.043Z,81.63
2017-11-24T00:58:52.093Z,81.35
2017-11-24T00:59:52.037Z,81.73
2017-11-24T01:00:52.031Z,81.15
2017-11-24T01:01:52.030Z,81.54
2017-11-24T01:02:52.024Z,81.92
2017-11-24T01:03:52.021Z,80.96
2017-11-24T01:04:52.024Z,80.87
2017-11-24T01:05:52.018Z,80.87
2017-11-24T01:06:52.014Z,80.77
2017-11-24T01:07:52.018Z,81.06
2017-11-24T01:08:52.008Z,80.87
2017-11-24T01:09:52.007Z,80.96
2017-11-24T01:10:52.032Z,80.96
2017-11-24T01:11:52.002Z,80.96
2017-11-24T01:12:51.998Z,80.96
2017-11-24T01:13:51.995Z,81.06
2017-11-24T01:14:51.991Z,80.68
2017-11-24T01:15:52.032Z,80.20
2017-11-24T01:16:51.989Z,80.20
2017-11-24T01:17:52.001Z,80.77
2017-11-24T01:18:51.981Z,79.91
2017-11-24T01:19:51.979Z,80.01
2017-11-24T01:20:51.977Z,79.72
2017-11-24T01:21:51.974Z,80.01
2017-11-24T01:22:51.970Z,79.63
2017-11-24T01:23:51.974Z,80.30
2017-11-24T01:24:51.972Z,79.91
2017-11-24T01:25:52.021Z,80.20
2017-11-24T01:26:51.964Z,80.01
2017-11-24T01:27:51.977Z,79.63
2017-11-24T01:28:51.957Z,80.11
2017-11-24T01:29:51.952Z,81.06
2017-11-24T01:30:51.955Z,80.58
2017-11-24T01:31:52.027Z,80.87
2017-11-24T01:32:51.946Z,81.06
2017-11-24T01:33:51.945Z,80.49
2017-11-24T01:34:51.939Z,81.15
2017-11-24T01:35:51.959Z,81.92
2017-11-24T01:36:51.939Z,81.73
2017-11-24T01:37:51.931Z,82.01
2017-11-24T01:38:51.958Z,81.92
2017-11-24T01:39:51.925Z,82.07
2017-11-24T01:40:51.927Z,81.88
2017-11-24T01:41:51.921Z,81.59
2017-11-24T01:42:51.919Z,82.17
2017-11-24T01:43:51.919Z,82.35
2017-11-24T01:44:51.911Z,82.26
2017-11-24T01:45:51.909Z,82.07
2017-11-24T01:46:51.905Z,82.35
2017-11-24T01:47:51.905Z,82.17
2017-11-24T01:48:51.900Z,82.54
2017-11-24T01:49:51.901Z,82.35
2017-11-24T01:50:51.895Z,82.54
2017-11-24T01:51:51.892Z,82.54
2017-11-24T01:52:51.888Z,82.83
2017-11-24T01:53:51.887Z,82.73
2017-11-24T01:54:51.883Z,82.83
2017-11-24T01:55:51.886Z,82.73
2017-11-24T01:56:51.877Z,82.73
2017-11-24T01:57:51.873Z,82.83
2017-11-24T01:58:51.872Z,82.64
2017-11-24T01:59:51.870Z,83.02
2017-11-24T02:00:51.865Z,82.73
2017-11-24T02:01:51.861Z,82.83
2017-11-24T02:02:51.858Z,82.45
2017-11-24T02:03:51.934Z,83.02
2017-11-24T02:04:51.852Z,83.02
2017-11-24T02:05:51.862Z,82.83
2017-11-24T02:06:51.864Z,82.92
2017-11-24T02:07:52.203Z,82.83
2017-11-24T02:08:51.842Z,82.83
2017-11-24T02:09:51.838Z,82.83
2017-11-24T02:10:51.836Z,83.02
2017-11-24T02:11:51.832Z,82.83
2017-11-24T02:12:51.829Z,82.64
2017-11-24T02:13:51.833Z,82.92
2017-11-24T02:14:51.824Z,83.21
2017-11-24T02:15:51.820Z,82.35
2017-11-24T02:16:51.815Z,82.35
2017-11-24T02:17:51.840Z,82.45
2017-11-24T02:18:51.813Z,82.54
2017-11-24T02:19:51.808Z,82.07
2017-11-24T02:20:51.805Z,82.26
2017-11-24T02:21:51.801Z,81.88
2017-11-24T02:22:51.798Z,82.07
2017-11-24T02:23:51.796Z,81.97
2017-11-24T02:24:51.793Z,81.97
2017-11-24T02:25:51.790Z,82.26
2017-11-24T02:26:51.788Z,82.45
2017-11-24T02:27:51.785Z,81.49
2017-11-24T02:28:51.781Z,81.49
2017-11-24T02:29:51.789Z,81.68
2017-11-24T02:30:51.774Z,81.68
2017-11-24T02:31:51.774Z,82.07
2017-11-24T02:32:51.769Z,81.88
2017-11-24T02:33:51.783Z,81.40
2017-11-24T02:34:51.762Z,81.88
2017-11-24T02:35:51.769Z,81.21
2017-11-24T02:36:51.759Z,81.49
2017-11-24T02:37:51.757Z,81.59
2017-11-24T02:38:51.758Z,81.40
2017-11-24T02:39:51.750Z,81.49
2017-11-24T02:40:51.747Z,81.49
2017-11-24T02:41:51.744Z,81.30
2017-11-24T02:42:51.741Z,81.49
2017-11-24T02:43:51.739Z,81.21
2017-11-24T02:44:51.735Z,81.68
2017-11-24T02:45:51.737Z,81.97
2017-11-24T02:46:51.728Z,81.30
2017-11-24T02:47:52.365Z,81.30
2017-11-24T02:48:51.725Z,81.40
2017-11-24T02:49:51.721Z,81.97
2017-11-24T02:50:51.718Z,81.59
2017-11-24T02:51:51.729Z,81.49
2017-11-24T02:52:51.711Z,81.40
2017-11-24T02:53:51.708Z,82.07
2017-11-24T02:54:51.704Z,81.97
2017-11-24T02:55:51.704Z,82.07
2017-11-24T02:56:51.699Z,82.35
2017-11-24T02:57:51.697Z,82.17
2017-11-24T02:58:51.695Z,81.97
2017-11-24T02:59:51.689Z,82.35
2017-11-24T03:00:51.686Z,81.68
2017-11-24T03:01:51.684Z,82.26
2017-11-24T03:02:51.680Z,82.45
2017-11-24T03:03:51.689Z,82.17
2017-11-24T03:04:51.674Z,82.07
2017-11-24T03:05:51.672Z,82.35
2017-11-24T03:06:51.668Z,82.35
2017-11-24T03:07:51.664Z,81.88
2017-11-24T03:08:51.663Z,82.17
2017-11-24T03:09:51.659Z,82.17
2017-11-24T03:10:51.655Z,82.12
2017-11-24T03:11:51.653Z,82.45
2017-11-24T03:12:51.650Z,82.26
2017-11-24T03:13:51.646Z,82.26
2017-11-24T03:14:51.642Z,81.88
2017-11-24T03:15:51.641Z,82.07
2017-11-24T03:16:51.637Z,81.97
2017-11-24T03:17:51.634Z,82.35
2017-11-24T03:18:51.628Z,81.88
2017-11-24T03:19:51.629Z,81.97
2017-11-24T03:20:51.624Z,82.26
2017-11-24T03:21:51.620Z,82.45
2017-11-24T03:22:51.616Z,82.54
2017-11-24T03:23:51.614Z,82.26
2017-11-24T03:24:51.608Z,82.07
2017-11-24T03:25:51.606Z,82.35
2017-11-24T03:26:51.603Z,82.35
2017-11-24T03:27:51.600Z,81.49
2017-11-24T03:28:51.599Z,81.88
2017-11-24T03:29:51.592Z,82.07
2017-11-24T03:30:51.595Z,81.88
2017-11-24T03:31:51.587Z,81.21
2017-11-24T03:32:51.604Z,81.59
2017-11-24T03:33:51.587Z,81.49
2017-11-24T03:34:51.576Z,82.35
2017-11-24T03:35:51.571Z,81.49
2017-11-24T03:36:51.569Z,81.30
2017-11-24T03:37:51.566Z,81.49
2017-11-24T03:38:51.566Z,81.49
2017-11-24T03:39:51.564Z,81.21
2017-11-24T03:40:51.556Z,81.30
2017-11-24T03:41:51.553Z,81.30
2017-11-24T03:42:51.549Z,81.78
2017-11-24T03:43:51.547Z,81.30
2017-11-24T03:44:51.544Z,81.40
2017-11-24T03:45:51.539Z,82.07
2017-11-24T03:46:51.543Z,81.59
2017-11-24T03:47:51.538Z,81.40
2017-11-24T03:48:51.532Z,81.68
2017-11-24T03:49:51.529Z,82.17
2017-11-24T03:50:51.522Z,82.07
2017-11-24T03:51:51.520Z,81.88
2017-11-24T03:52:51.517Z,81.78
2017-11-24T03:53:51.513Z,82.41
2017-11-24T03:54:51.511Z,82.50
2017-11-24T03:55:51.507Z,82.79
2017-11-24T03:56:51.506Z,82.50
2017-11-24T03:57:51.500Z,82.98
2017-11-24T03:58:51.496Z,82.79
2017-11-24T03:59:51.492Z,83.36
2017-11-24T04:00:51.490Z,83.36
2017-11-24T04:01:51.487Z,83.17
2017-11-24T04:02:51.485Z,83.07
2017-11-24T04:03:51.479Z,83.45
2017-11-24T04:04:51.477Z,83.36
2017-11-24T04:05:51.473Z,83.93
2017-11-24T04:06:51.470Z,84.03
2017-11-24T04:07:51.465Z,83.93
2017-11-24T04:08:51.462Z,84.22
2017-11-24T04:09:51.460Z,84.31
2017-11-24T04:10:51.455Z,84.31
2017-11-24T04:11:51.451Z,84.50
2017-11-24T04:12:51.449Z,84.69
2017-11-24T04:13:51.448Z,84.60
2017-11-24T04:14:51.440Z,84.65
2017-11-24T04:15:51.447Z,85.22
2017-11-24T04:16:51.435Z,84.98
2017-11-24T04:17:51.429Z,84.79
2017-11-24T04:18:51.424Z,85.03
2017-11-24T04:19:51.430Z,84.84
2017-11-24T04:20:51.418Z,85.32
2017-11-24T04:21:51.414Z,85.13
2017-11-24T04:22:51.412Z,85.22
2017-11-24T04:23:51.406Z,85.22
2017-11-24T04:24:51.402Z,85.13
2017-11-24T04:25:51.398Z,85.22
2017-11-24T04:26:51.400Z,85.03
2017-11-24T04:27:51.390Z,85.32
2017-11-24T04:28:51.388Z,85.27
2017-11-24T04:29:51.389Z,85.36
2017-11-24T04:30:51.378Z,84.41
2017-11-24T04:31:51.376Z,84.79
2017-11-24T04:32:51.372Z,83.84
2017-11-24T04:33:51.368Z,83.36
2017-11-24T04:34:51.365Z,82.92
2017-11-24T04:35:51.359Z,82.07
2017-11-24T04:36:51.361Z,81.97
2017-11-24T04:37:51.353Z,81.59
2017-11-24T04:38:51.349Z,80.83
2017-11-24T04:39:51.346Z,80.92
2017-11-24T04:40:51.341Z,80.26
2017-11-24T04:41:51.338Z,79.88
2017-11-24T04:42:51.341Z,79.97
2017-11-24T04:43:51.439Z,79.40
2017-11-24T04:44:51.327Z,79.44
2017-11-24T04:45:51.327Z,79.44
2017-11-24T04:46:51.317Z,79.53
2017-11-24T04:47:51.315Z,79.25
2017-11-24T04:48:51.313Z,79.15
2017-11-24T04:49:51.308Z,78.96
2017-11-24T04:50:51.305Z,78.39
2017-11-24T04:51:51.301Z,78.58
2017-11-24T04:52:51.300Z,78.67
2017-11-24T04:53:51.295Z,78.10
2017-11-24T04:54:51.289Z,78.20
2017-11-24T04:55:51.290Z,78.01
2017-11-24T04:56:51.283Z,77.91
2017-11-24T04:57:51.280Z,78.01
2017-11-24T04:58:51.278Z,78.10
2017-11-24T04:59:51.276Z,78.39
2017-11-24T05:00:51.270Z,78.20
2017-11-24T05:01:51.268Z,78.10
2017-11-24T05:02:51.269Z,78.58
2017-11-24T05:03:51.261Z,77.82
2017-11-24T05:04:51.297Z,78.01
2017-11-24T05:05:51.254Z,77.72
2017-11-24T05:06:51.249Z,78.01
2017-11-24T05:07:51.247Z,77.91
2017-11-24T05:08:51.244Z,77.72
2017-11-24T05:09:51.240Z,78.10
2017-11-24T05:10:51.235Z,77.91
2017-11-24T05:11:51.235Z,78.58
2017-11-24T05:12:51.237Z,78.30
2017-11-24T05:13:51.229Z,78.30
2017-11-24T05:14:51.224Z,77.82
2017-11-24T05:15:51.224Z,78.30
2017-11-24T05:16:51.218Z,77.91
2017-11-24T05:17:51.891Z,78.10
2017-11-24T05:18:51.212Z,78.58
2017-11-24T05:19:51.209Z,78.58
2017-11-24T05:20:51.206Z,78.39
2017-11-24T05:21:51.202Z,78.67
2017-11-24T05:22:51.198Z,78.77
2017-11-24T05:23:51.196Z,78.67
2017-11-24T05:24:51.192Z,78.49
2017-11-24T05:25:51.190Z,78.49
2017-11-24T05:26:51.188Z,78.49
2017-11-24T05:27:51.188Z,79.06
2017-11-24T05:28:51.182Z,79.25
2017-11-24T05:29:51.177Z,78.58
2017-11-24T05:30:51.172Z,78.96
2017-11-24T05:31:51.172Z,78.77
2017-11-24T05:32:51.165Z,78.86
2017-11-24T05:33:51.168Z,78.86
2017-11-24T05:34:51.158Z,79.15
2017-11-24T05:35:51.159Z,79.06
2017-11-24T05:36:51.153Z,78.86
2017-11-24T05:37:51.150Z,78.83
2017-11-24T05:38:51.147Z,79.15
2017-11-24T05:39:51.143Z,78.96
2017-11-24T05:40:51.140Z,79.06
2017-11-24T05:41:51.148Z,78.86
2017-11-24T05:42:51.134Z,78.96
2017-11-24T05:43:51.135Z,79.06
2017-11-24T05:44:51.128Z,78.96
2017-11-24T05:45:51.132Z,79.15
2017-11-24T05:46:51.120Z,79.06
2017-11-24T05:47:51.117Z,79.15
2017-11-24T05:48:51.145Z,78.96
2017-11-24T05:49:51.111Z,79.06
2017-11-24T05:50:51.113Z,79.06
2017-11-24T05:51:51.103Z,79.06
2017-11-24T05:52:51.101Z,79.06
2017-11-24T05:53:51.098Z,79.15
2017-11-24T05:54:51.096Z,78.96
2017-11-24T05:55:51.093Z,78.96
2017-11-24T05:56:51.088Z,78.96
2017-11-24T05:57:51.085Z,78.67
2017-11-24T05:58:51.081Z,79.15
2017-11-24T05:59:51.080Z,79.15
2017-11-24T06:00:51.075Z,78.92
2017-11-24T06:01:51.075Z,79.25
2017-11-24T06:02:51.068Z,78.96
2017-11-24T06:03:51.067Z,78.49
2017-11-24T06:04:51.062Z,78.58
2017-11-24T06:05:51.059Z,78.49
2017-11-24T06:06:51.055Z,78.39
2017-11-24T06:07:51.056Z,78.39
2017-11-24T06:08:51.054Z,78.49
2017-11-24T06:09:51.045Z,78.67
2017-11-24T06:10:51.041Z,78.96
2017-11-24T06:11:51.039Z,78.67
2017-11-24T06:12:51.042Z,78.49
2017-11-24T06:13:51.036Z,78.77
2017-11-24T06:14:51.033Z,78.49
2017-11-24T06:15:51.026Z,78.58
2017-11-24T06:16:51.027Z,78.49
2017-11-24T06:17:51.020Z,78.67
2017-11-24T06:18:51.016Z,78.77
2017-11-24T06:19:51.017Z,78.67
2017-11-24T06:20:51.011Z,78.58
2017-11-24T06:21:51.007Z,78.39
2017-11-24T06:22:51.003Z,78.30
2017-11-24T06:23:51.007Z,78.10
2017-11-24T06:24:50.998Z,78.01
2017-11-24T06:25:50.996Z,77.82
2017-11-24T06:26:50.992Z,77.82
2017-11-24T06:27:50.989Z,78.10
2017-11-24T06:28:50.985Z,77.82
2017-11-24T06:29:50.982Z,77.91
2017-11-24T06:30:50.978Z,77.82
2017-11-24T06:31:50.977Z,78.20
2017-11-24T06:32:50.972Z,78.30
2017-11-24T06:33:50.970Z,78.10
2017-11-24T06:34:50.966Z,78.01
2017-11-24T06:35:50.962Z,78.20
2017-11-24T06:36:50.960Z,78.10
2017-11-24T06:37:50.959Z,78.01
2017-11-24T06:38:50.962Z,77.62
2017-11-24T06:39:50.951Z,77.82
2017-11-24T06:40:50.949Z,77.53
2017-11-24T06:41:50.946Z,77.06
2017-11-24T06:42:50.941Z,77.06
2017-11-24T06:43:50.939Z,77.15
2017-11-24T06:44:50.939Z,77.44
2017-11-24T06:45:50.934Z,77.34
2017-11-24T06:46:50.930Z,76.86
2017-11-24T06:47:50.927Z,76.67
2017-11-24T06:48:50.925Z,76.67
2017-11-24T06:49:50.921Z,76.57
2017-11-24T06:50:50.918Z,76.77
2017-11-24T06:51:50.914Z,76.67
2017-11-24T06:52:50.914Z,76.67
2017-11-24T06:53:50.909Z,76.33
2017-11-24T06:54:50.907Z,76.48
2017-11-24T06:55:50.903Z,76.23
2017-11-24T06:56:50.901Z,76.48
2017-11-24T06:57:50.930Z,76.20
2017-11-24T06:58:50.893Z,76.62
2017-11-24T06:59:50.894Z,75.95
2017-11-24T07:00:50.889Z,76.14
2017-11-24T07:01:50.890Z,75.95
2017-11-24T07:02:50.885Z,75.66
2017-11-24T07:03:50.884Z,75.37
2017-11-24T07:04:50.879Z,75.09
2017-11-24T07:05:50.875Z,74.61
2017-11-24T07:06:50.872Z,75.18
2017-11-24T07:07:50.870Z,75.09
2017-11-24T07:08:50.866Z,74.80
2017-11-24T07:09:50.866Z,74.61
2017-11-24T07:10:50.863Z,74.52
2017-11-24T07:11:50.860Z,74.13
2017-11-24T07:12:50.857Z,74.65
2017-11-24T07:13:50.854Z,74.17
2017-11-24T07:14:50.862Z,74.08
2017-11-24T07:15:50.847Z,73.41
2017-11-24T07:16:50.847Z,73.41
2017-11-24T07:17:50.843Z,73.41
2017-11-24T07:18:50.840Z,73.12
2017-11-24T07:19:52.071Z,73.22
2017-11-24T07:20:51.050Z,73.60
2017-11-24T07:21:50.834Z,73.32
2017-11-24T07:22:51.033Z,73.03
2017-11-24T07:23:50.827Z,72.74
2017-11-24T07:24:50.825Z,72.93
2017-11-24T07:25:50.837Z,72.93
2017-11-24T07:26:50.828Z,73.03
2017-11-24T07:27:50.825Z,73.41
2017-11-24T07:28:50.814Z,73.03
2017-11-24T07:29:50.832Z,72.93
2017-11-24T07:30:50.820Z,72.93
2017-11-24T07:31:50.806Z,72.93
2017-11-24T07:32:50.828Z,72.45
2017-11-24T07:33:50.820Z,72.55
2017-11-24T07:34:50.973Z,72.93
2017-11-24T07:35:50.809Z,72.45
2017-11-24T07:36:50.864Z,72.74
2017-11-24T07:37:50.838Z,72.64
2017-11-24T07:38:50.790Z,72.64
2017-11-24T07:39:50.843Z,72.45
2017-11-24T07:40:50.783Z,72.83
2017-11-24T07:41:50.978Z,72.26
2017-11-24T07:42:50.780Z,72.45
2017-11-24T07:43:50.778Z,72.36
2017-11-24T07:44:51.030Z,72.07
2017-11-24T07:45:50.773Z,72.55
2017-11-24T07:46:51.528Z,72.36
2017-11-24T07:47:50.765Z,71.88
2017-11-24T07:48:50.772Z,72.07
2017-11-24T07:49:50.863Z,71.88
2017-11-24T07:50:50.794Z,72.36
2017-11-24T07:51:50.767Z,71.98
2017-11-24T07:52:50.794Z,72.07
2017-11-24T07:53:50.753Z,72.17
2017-11-24T07:54:50.751Z,72.26
2017-11-24T07:55:51.047Z,71.78
2017-11-24T07:56:50.942Z,72.17
2017-11-24T07:57:50.782Z,72.26
2017-11-24T07:58:50.744Z,72.45
2017-11-24T07:59:50.738Z,72.26
2017-11-24T08:00:50.738Z,72.36
2017-11-24T08:01:50.743Z,72.17
2017-11-24T08:02:50.917Z,72.26
2017-11-24T08:03:50.729Z,72.07
2017-11-24T08:04:50.727Z,72.30
2017-11-24T08:05:50.749Z,71.72
2017-11-24T08:06:50.733Z,71.44
2017-11-24T08:07:50.723Z,71.44
2017-11-24T08:08:50.724Z,71.63
2017-11-24T08:09:50.719Z,71.25
2017-11-24T08:10:50.717Z,71.44
2017-11-24T08:11:50.722Z,71.44
2017-11-24T08:12:50.712Z,71.34
2017-11-24T08:13:50.712Z,70.58
2017-11-24T08:14:50.712Z,70.77
2017-11-24T08:15:50.707Z,70.58
2017-11-24T08:16:50.795Z,71.06
2017-11-24T08:17:50.775Z,70.58
2017-11-24T08:18:51.100Z,70.87
2017-11-24T08:19:50.699Z,70.48
2017-11-24T08:20:50.702Z,70.87
2017-11-24T08:21:50.700Z,71.15
2017-11-24T08:22:50.690Z,71.34
2017-11-24T08:23:50.796Z,71.92
2017-11-24T08:24:50.697Z,72.11
2017-11-24T08:25:50.686Z,72.39
2017-11-24T08:26:50.686Z,72.87
2017-11-24T08:27:50.678Z,72.87
2017-11-24T08:28:50.761Z,73.35
2017-11-24T08:29:50.678Z,73.44
2017-11-24T08:30:50.675Z,73.16
2017-11-24T08:31:50.679Z,73.16
2017-11-24T08:32:51.465Z,73.63
2017-11-24T08:33:50.914Z,73.16
2017-11-24T08:34:50.668Z,73.25
2017-11-24T08:35:50.671Z,73.35
2017-11-24T08:36:50.663Z,73.44
2017-11-24T08:37:50.664Z,73.35
2017-11-24T08:38:50.661Z,73.73
2017-11-24T08:39:50.661Z,73.54
2017-11-24T08:40:50.656Z,73.25
2017-11-24T08:41:50.656Z,73.44
2017-11-24T08:42:50.653Z,73.25
2017-11-24T08:43:50.651Z,73.44
2017-11-24T08:44:50.649Z,73.54
2017-11-24T08:45:50.660Z,73.44
2017-11-24T08:46:50.644Z,73.92
2017-11-24T08:47:50.657Z,73.92
2017-11-24T08:48:50.641Z,74.02
2017-11-24T08:49:50.642Z,74.40
2017-11-24T08:50:50.659Z,74.69
2017-11-24T08:51:50.637Z,74.59
2017-11-24T08:52:50.637Z,74.88
2017-11-24T08:53:50.644Z,74.88
2017-11-24T08:54:50.639Z,75.07
2017-11-24T08:55:50.627Z,75.16
2017-11-24T08:56:50.636Z,75.35
2017-11-24T08:57:50.631Z,75.16
2017-11-24T08:58:50.625Z,75.45
2017-11-24T08:59:50.627Z,75.64
2017-11-24T09:00:50.628Z,76.21
2017-11-24T09:01:50.624Z,75.45
2017-11-24T09:02:50.628Z,75.93
2017-11-24T09:03:50.614Z,76.31
2017-11-24T09:04:50.612Z,76.03
2017-11-24T09:05:50.613Z,76.03
2017-11-24T09:06:50.613Z,76.31
2017-11-24T09:07:50.620Z,76.88
2017-11-24T09:08:50.607Z,76.79
2017-11-24T09:09:50.612Z,77.51
2017-11-24T09:10:50.601Z,77.45
2017-11-24T09:11:50.604Z,77.61
2017-11-24T09:12:50.608Z,76.98
2017-11-24T09:13:50.600Z,77.65
2017-11-24T09:14:50.596Z,76.94
2017-11-24T09:15:50.596Z,77.32
2017-11-24T09:16:50.600Z,77.51
2017-11-24T09:17:50.590Z,77.32
2017-11-24T09:18:50.589Z,77.42
2017-11-24T09:19:50.586Z,77.45
2017-11-24T09:20:50.584Z,77.55
2017-11-24T09:21:50.584Z,76.60
2017-11-24T09:22:50.581Z,76.56
2017-11-24T09:23:50.579Z,77.08
2017-11-24T09:24:50.579Z,76.88
2017-11-24T09:25:50.581Z,76.69
2017-11-24T09:26:50.644Z,76.79
2017-11-24T09:27:50.584Z,77.03
2017-11-24T09:28:50.571Z,76.84
2017-11-24T09:29:50.577Z,76.65
2017-11-24T09:30:50.573Z,76.84
2017-11-24T09:31:50.570Z,76.79
2017-11-24T09:32:50.565Z,76.65
2017-11-24T09:33:50.565Z,76.08
2017-11-24T09:34:50.558Z,76.08
2017-11-24T09:35:50.570Z,76.40
2017-11-24T09:36:50.554Z,76.40
2017-11-24T09:37:50.557Z,76.56
2017-11-24T09:38:50.550Z,76.40
2017-11-24T09:39:50.548Z,76.03
2017-11-24T09:40:50.547Z,75.83
2017-11-24T09:41:50.546Z,75.93
2017-11-24T09:42:50.544Z,75.64
2017-11-24T09:43:50.541Z,75.93
2017-11-24T09:44:50.539Z,75.83
2017-11-24T09:45:50.538Z,75.83
2017-11-24T09:46:50.534Z,76.40
2017-11-24T09:47:50.537Z,75.93
2017-11-24T09:48:50.532Z,76.12
2017-11-24T09:49:50.530Z,75.93
2017-11-24T09:50:50.527Z,75.93
2017-11-24T09:51:50.526Z,75.16
2017-11-24T09:52:50.524Z,75.54
2017-11-24T09:53:50.524Z,75.45
2017-11-24T09:54:50.520Z,75.45
2017-11-24T09:55:50.518Z,75.16
2017-11-24T09:56:50.517Z,75.54
2017-11-24T09:57:50.518Z,75.16
2017-11-24T09:58:50.513Z,75.74
2017-11-24T09:59:50.512Z,75.07
2017-11-24T10:00:50.510Z,75.16
2017-11-24T10:01:50.508Z,74.98
2017-11-24T10:02:50.508Z,75.30
2017-11-24T10:03:50.511Z,75.45
2017-11-24T10:04:50.503Z,75.54
2017-11-24T10:05:50.512Z,75.26
2017-11-24T10:06:50.501Z,75.39
2017-11-24T10:07:50.500Z,75.49
2017-11-24T10:08:50.496Z,75.20
2017-11-24T10:09:50.497Z,74.63
2017-11-24T10:10:50.493Z,75.01
2017-11-24T10:11:50.535Z,75.01
2017-11-24T10:12:50.491Z,74.73
2017-11-24T10:13:50.501Z,74.82
2017-11-24T10:14:50.486Z,74.82
2017-11-24T10:15:50.486Z,74.15
2017-11-24T10:16:50.484Z,74.34
2017-11-24T10:17:50.487Z,74.19
2017-11-24T10:18:50.487Z,74.66
2017-11-24T10:19:50.481Z,74.57
2017-11-24T10:20:50.482Z,74.57
2017-11-24T10:21:50.481Z,74.19
2017-11-24T10:22:50.480Z,74.38
2017-11-24T10:23:50.476Z,74.19
2017-11-24T10:24:50.475Z,74.28
2017-11-24T10:25:50.484Z,73.90
2017-11-24T10:26:50.475Z,73.71
2017-11-24T10:27:50.474Z,73.23
2017-11-24T10:28:50.472Z,73.33
2017-11-24T10:29:50.480Z,73.52
2017-11-24T10:30:50.473Z,73.71
2017-11-24T10:31:50.470Z,73.33
2017-11-24T10:32:50.467Z,73.52
2017-11-24T10:33:50.469Z,74.09
2017-11-24T10:34:50.473Z,74.19
2017-11-24T10:35:50.465Z,74.09
2017-11-24T10:36:50.499Z,73.80
2017-11-24T10:37:50.466Z,74.19
2017-11-24T10:38:50.459Z,74.19
2017-11-24T10:39:50.460Z,73.90
2017-11-24T10:40:50.490Z,73.61
2017-11-24T10:41:50.458Z,73.61
2017-11-24T10:42:50.468Z,73.71
2017-11-24T10:43:50.457Z,73.52
2017-11-24T10:44:50.468Z,73.33
2017-11-24T10:45:50.457Z,73.14
2017-11-24T10:46:50.454Z,73.14
2017-11-24T10:47:50.477Z,73.61
2017-11-24T10:48:50.452Z,73.04
2017-11-24T10:49:50.451Z,73.33
2017-11-24T10:50:50.470Z,73.33
2017-11-24T10:51:50.450Z,73.33
2017-11-24T10:52:50.452Z,73.65
2017-11-24T10:53:50.451Z,73.14
2017-11-24T10:54:50.451Z,73.27
2017-11-24T10:55:50.448Z,73.36
2017-11-24T10:56:50.447Z,73.55
2017-11-24T10:57:50.475Z,73.55
2017-11-24T10:58:50.452Z,72.60
2017-11-24T10:59:50.446Z,72.50
2017-11-24T11:00:50.453Z,72.60
2017-11-24T11:01:50.444Z,72.79
2017-11-24T11:02:50.457Z,72.12
2017-11-24T11:03:50.450Z,72.12
2017-11-24T11:04:50.443Z,72.60
2017-11-24T11:05:50.443Z,71.93
2017-11-24T11:06:50.453Z,71.55
2017-11-24T11:07:50.447Z,71.45
2017-11-24T11:08:50.441Z,71.01
2017-11-24T11:09:50.441Z,70.87
2017-11-24T11:10:50.446Z,71.39
2017-11-24T11:11:50.439Z,71.30
2017-11-24T11:12:50.444Z,70.53
2017-11-24T11:13:50.439Z,70.91
2017-11-24T11:14:50.451Z,70.43
2017-11-24T11:15:50.438Z,70.81
2017-11-24T11:16:50.451Z,70.62
2017-11-24T11:17:50.440Z,70.34
2017-11-24T11:18:50.438Z,70.43
2017-11-24T11:19:50.444Z,70.62
2017-11-24T11:20:50.446Z,69.95
2017-11-24T11:21:50.438Z,70.72
2017-11-24T11:22:50.444Z,70.72
2017-11-24T11:23:50.436Z,69.86
2017-11-24T11:24:50.437Z,70.43
2017-11-24T11:25:50.440Z,70.34
2017-11-24T11:26:50.438Z,70.53
2017-11-24T11:27:50.446Z,70.53
2017-11-24T11:28:50.436Z,70.24
2017-11-24T11:29:50.442Z,70.34
2017-11-24T11:30:50.448Z,70.24
2017-11-24T11:31:50.438Z,69.76
2017-11-24T11:32:50.439Z,69.57
2017-11-24T11:33:50.436Z,70.43
2017-11-24T11:34:50.436Z,69.67
2017-11-24T11:35:50.738Z,69.38
2017-11-24T11:36:50.674Z,69.00
2017-11-24T11:37:50.435Z,68.90
2017-11-24T11:38:50.437Z,69.00
2017-11-24T11:39:50.437Z,68.80
2017-11-24T11:40:50.437Z,68.71
2017-11-24T11:41:50.439Z,68.17
2017-11-24T11:42:50.443Z,68.46
2017-11-24T11:43:50.437Z,67.88
2017-11-24T11:44:50.444Z,67.98
2017-11-24T11:45:50.438Z,67.79
2017-11-24T11:46:50.438Z,68.04
2017-11-24T11:47:50.439Z,68.27
2017-11-24T11:48:50.437Z,67.79
2017-11-24T11:49:50.440Z,67.60
2017-11-24T11:50:50.436Z,67.79
2017-11-24T11:51:50.440Z,67.69
2017-11-24T11:52:50.444Z,67.66
2017-11-24T11:53:50.437Z,67.69
2017-11-24T11:54:50.438Z,67.69
2017-11-24T11:55:50.439Z,68.13
2017-11-24T11:56:50.446Z,67.79
2017-11-24T11:57:50.437Z,67.98
2017-11-24T11:58:50.439Z,67.85
2017-11-24T11:59:50.438Z,67.76
2017-11-24T12:00:50.437Z,67.66
2017-11-24T12:01:50.440Z,67.66
2017-11-24T12:02:50.450Z,68.36
2017-11-24T12:03:50.436Z,68.36
2017-11-24T12:04:50.440Z,68.07
2017-11-24T12:05:50.443Z,68.33
2017-11-24T12:06:50.437Z,68.65
2017-11-24T12:07:50.437Z,68.84
2017-11-24T12:08:50.439Z,69.00
2017-11-24T12:09:50.436Z,68.90
2017-11-24T12:10:50.436Z,68.62
2017-11-24T12:11:50.439Z,68.90
2017-11-24T12:12:50.437Z,68.46
2017-11-24T12:13:50.443Z,68.42
2017-11-24T12:14:50.439Z,68.55
2017-11-24T12:15:50.449Z,68.65
2017-11-24T12:16:50.453Z,68.55
2017-11-24T12:17:50.437Z,68.62
2017-11-24T12:18:50.466Z,68.80
2017-11-24T12:19:50.500Z,68.23
2017-11-24T12:20:50.436Z,68.74
2017-11-24T12:21:50.437Z,68.36
2017-11-24T12:22:50.436Z,67.94
2017-11-24T12:23:50.440Z,68.04
2017-11-24T12:24:50.460Z,67.66
2017-11-24T12:25:50.487Z,68.33
2017-11-24T12:26:50.437Z,68.62
2017-11-24T12:27:50.436Z,68.13
2017-11-24T12:28:50.446Z,67.69
2017-11-24T12:29:50.439Z,67.76
2017-11-24T12:30:50.436Z,68.17
2017-11-24T12:31:50.442Z,67.94
2017-11-24T12:32:50.436Z,67.98
2017-11-24T12:33:50.438Z,67.94
2017-11-24T12:34:50.436Z,68.04
2017-11-24T12:35:50.436Z,68.07
2017-11-24T12:36:50.437Z,67.66
2017-11-24T12:37:50.437Z,67.85
2017-11-24T12:38:50.475Z,67.76
2017-11-24T12:39:50.437Z,67.94
2017-11-24T12:40:50.438Z,67.76
2017-11-24T12:41:50.437Z,68.04
2017-11-24T12:42:50.438Z,68.17
2017-11-24T12:43:51.097Z,67.69
2017-11-24T12:44:50.437Z,67.94
2017-11-24T12:45:50.449Z,67.76
2017-11-24T12:46:50.438Z,67.94
2017-11-24T12:47:50.438Z,67.85
2017-11-24T12:48:50.437Z,68.17
2017-11-24T12:49:50.450Z,68.27
2017-11-24T12:50:50.436Z,68.42
2017-11-24T12:51:50.438Z,68.27
2017-11-24T12:52:50.436Z,68.65